Bedford Heights, Indiana
Current Conditions -  °F | °C
As of 1:53 PM on Thursday 23 Oct 2014 (Local Time) from KBMG Reporting Station
Clear Clear  
Wind Chill: 58°   Ceiling: Unl
Heat Index: 58°   Visibility: 10mi
Dew Point: 40°   Wind: 3mph
Humidity: 51%   Direction: 260°W
Pressure: 30.2"   Gusts: NA
Location:  38.8737°N, 86.4563°W
Report Text: KBMG 231753Z 26003KT 10SM CLR 14/04 A3020 RMK AO2 SLP227 I6001 T01440044 10144 20000 58019
Loading
Personal Weather Stations






























Interactive Weather Map
Tropical Storm Tracking
New forecast layout! Learn more

10-Day Weather Forecast

Advertisements
Track Severe Weather on mobile